createdAt,value
2023-01-18T00:01:35.196Z,99241.31
2023-01-18T00:04:01.976Z,99240.25
2023-01-18T00:06:28.708Z,99241.31
2023-01-18T00:08:58.148Z,99246.78
2023-01-18T00:11:24.501Z,99246.13
2023-01-18T00:13:51.225Z,99243.91
2023-01-18T00:16:22.581Z,99238.78
2023-01-18T00:19:18.385Z,99240.75
2023-01-18T00:21:44.804Z,99249.41
2023-01-18T00:24:17.316Z,99246.03
2023-01-18T00:26:50.973Z,99248.00
2023-01-18T00:29:21.854Z,99246.63
2023-01-18T00:31:50.972Z,99238.94
2023-01-18T00:34:17.398Z,99250.13
2023-01-18T00:39:38.513Z,99240.56
2023-01-18T00:42:25.250Z,99243.81
2023-01-18T00:44:53.975Z,99245.56
2023-01-18T00:47:20.318Z,99253.75
2023-01-18T00:49:46.665Z,99258.78
2023-01-18T00:52:13.352Z,99261.34
2023-01-18T00:54:39.818Z,99257.03
2023-01-18T00:57:06.187Z,99254.69
2023-01-18T00:59:32.555Z,99255.16
2023-01-18T01:02:02.125Z,99259.63
2023-01-18T01:04:50.187Z,99256.47
2023-01-18T01:07:16.547Z,99264.75
2023-01-18T01:09:46.191Z,99268.13
2023-01-18T01:12:35.053Z,99264.06
2023-01-18T01:15:19.835Z,99261.94
2023-01-18T01:21:04.779Z,99256.22
2023-01-18T01:23:50.043Z,99252.03
2023-01-18T01:26:17.662Z,99259.63
2023-01-18T01:28:45.835Z,99264.50
2023-01-18T01:31:17.528Z,99262.06
2023-01-18T01:33:50.199Z,99265.91
2023-01-18T01:36:29.313Z,99272.47
2023-01-18T01:38:59.113Z,99273.06
2023-01-18T01:41:34.106Z,99273.72
2023-01-18T01:44:27.847Z,99280.16
2023-01-18T01:47:05.394Z,99284.00
2023-01-18T01:49:42.803Z,99280.84
2023-01-18T01:52:13.116Z,99286.31
2023-01-18T01:54:44.324Z,99282.13
2023-01-18T01:57:33.708Z,99280.16
2023-01-18T02:00:16.967Z,99283.16
2023-01-18T02:02:57.056Z,99280.47
2023-01-18T02:05:28.766Z,99275.56
2023-01-18T02:08:01.651Z,99283.75
2023-01-18T02:10:31.042Z,99296.00
2023-01-18T02:15:46.585Z,99292.41
2023-01-18T02:18:34.072Z,99304.91
2023-01-18T02:21:27.049Z,99311.09
2023-01-18T02:24:51.863Z,99306.09
2023-01-18T02:27:31.753Z,99310.38
2023-01-18T02:30:44.422Z,99305.00
2023-01-18T02:33:23.162Z,99309.09
2023-01-18T02:35:58.993Z,99309.81
2023-01-18T02:38:39.017Z,99312.84
2023-01-18T02:41:50.033Z,99312.84
2023-01-18T02:44:42.073Z,99322.53
2023-01-18T02:47:11.644Z,99319.13
2023-01-18T02:49:38.030Z,99321.63
2023-01-18T02:52:39.763Z,99323.25
2023-01-18T02:55:15.842Z,99321.69
2023-01-18T02:57:43.316Z,99318.81
2023-01-18T03:00:20.490Z,99318.34
2023-01-18T03:02:49.277Z,99317.63
2023-01-18T03:05:20.741Z,99324.31
2023-01-18T03:08:09.434Z,99324.97
2023-01-18T03:10:44.952Z,99324.88
2023-01-18T03:13:26.620Z,99325.34
2023-01-18T03:16:20.793Z,99321.13
2023-01-18T03:19:38.986Z,99320.19
2023-01-18T03:22:06.272Z,99324.63
2023-01-18T03:24:45.019Z,99323.13
2023-01-18T03:27:36.695Z,99337.47
2023-01-18T03:30:28.608Z,99335.72
2023-01-18T03:33:19.721Z,99330.00
2023-01-18T03:35:48.972Z,99340.50
2023-01-18T03:38:19.854Z,99327.78
2023-01-18T03:40:46.573Z,99326.16
2023-01-18T03:43:18.794Z,99337.13
2023-01-18T03:45:49.418Z,99332.22
2023-01-18T03:48:21.738Z,99338.16
2023-01-18T03:51:12.787Z,99328.72
2023-01-18T03:53:50.557Z,99330.47
2023-01-18T03:56:53.066Z,99331.88
2023-01-18T03:59:19.477Z,99331.28
2023-01-18T04:01:50.526Z,99341.19
2023-01-18T04:04:17.037Z,99344.47
2023-01-18T04:06:43.469Z,99339.94
2023-01-18T04:09:14.078Z,99346.81
2023-01-18T04:11:44.056Z,99345.28
2023-01-18T04:14:13.820Z,99343.41
2023-01-18T04:16:42.793Z,99341.53
2023-01-18T04:19:09.242Z,99338.63
2023-01-18T04:21:38.756Z,99346.56
2023-01-18T04:24:11.185Z,99354.47
2023-01-18T04:26:41.000Z,99348.41
2023-01-18T04:29:12.702Z,99350.75
2023-01-18T04:31:39.388Z,99353.66
2023-01-18T04:34:08.144Z,99360.91
2023-01-18T04:36:37.321Z,99355.66
2023-01-18T04:39:05.905Z,99361.22
2023-01-18T04:41:42.482Z,99362.75
2023-01-18T04:44:13.032Z,99367.06
2023-01-18T04:46:42.962Z,99379.44
2023-01-18T04:49:16.325Z,99381.78
2023-01-18T04:51:46.736Z,99375.59
2023-01-18T04:57:01.031Z,99374.56
2023-01-18T04:59:30.285Z,99376.66
2023-01-18T05:01:56.762Z,99376.53
2023-01-18T05:07:09.448Z,99383.69
2023-01-18T05:09:35.823Z,99378.56
2023-01-18T05:12:02.220Z,99379.38
2023-01-18T05:14:33.213Z,99385.78
2023-01-18T05:17:02.635Z,99389.97
2023-01-18T05:22:17.184Z,99393.16
2023-01-18T05:24:46.309Z,99391.28
2023-01-18T05:27:13.229Z,99393.75
2023-01-18T05:29:42.343Z,99400.97
2023-01-18T05:32:11.936Z,99400.72
2023-01-18T05:34:41.862Z,99405.63
2023-01-18T05:37:08.224Z,99403.75
2023-01-18T05:39:34.645Z,99407.00
2023-01-18T05:42:01.084Z,99411.22
2023-01-18T05:44:27.769Z,99415.66
2023-01-18T05:46:54.144Z,99411.81
2023-01-18T05:49:20.560Z,99411.91
2023-01-18T05:51:46.922Z,99420.88
2023-01-18T05:54:15.919Z,99420.16
2023-01-18T05:56:45.586Z,99425.41
2023-01-18T05:59:18.058Z,99427.19
2023-01-18T06:01:47.566Z,99425.53
2023-01-18T06:04:14.050Z,99429.97
2023-01-18T06:06:43.181Z,99429.25
2023-01-18T06:09:13.929Z,99432.03
2023-01-18T06:11:40.312Z,99431.59
2023-01-18T06:14:09.505Z,99436.63
2023-01-18T06:16:38.986Z,99435.31
2023-01-18T06:19:05.896Z,99448.69
2023-01-18T06:21:43.928Z,99441.69
2023-01-18T06:26:57.269Z,99453.19
2023-01-18T06:29:26.746Z,99453.88
2023-01-18T06:31:56.311Z,99453.31
2023-01-18T06:34:23.095Z,99462.31
2023-01-18T06:36:49.446Z,99456.63
2023-01-18T06:39:15.954Z,99467.25
2023-01-18T06:41:51.189Z,99459.00
2023-01-18T06:44:18.710Z,99463.78
2023-01-18T06:46:47.457Z,99471.63
2023-01-18T06:49:17.060Z,99476.19
2023-01-18T06:51:43.895Z,99483.31
2023-01-18T06:54:17.783Z,99489.06
2023-01-18T06:56:44.235Z,99481.94
2023-01-18T07:02:02.272Z,99480.66
2023-01-18T07:04:28.880Z,99485.34
2023-01-18T07:06:57.909Z,99484.53
2023-01-18T07:09:26.781Z,99489.19
2023-01-18T07:11:53.241Z,99493.16
2023-01-18T07:14:23.967Z,99497.28
2023-01-18T07:16:53.626Z,99503.34
2023-01-18T07:19:20.254Z,99502.75
2023-01-18T07:21:46.626Z,99497.63
2023-01-18T07:24:15.568Z,99498.22
2023-01-18T07:26:41.941Z,99507.44
2023-01-18T07:29:10.354Z,99511.50
2023-01-18T07:31:41.615Z,99511.03
2023-01-18T07:34:11.703Z,99511.75
2023-01-18T07:36:44.587Z,99519.34
2023-01-18T07:39:11.597Z,99513.97
2023-01-18T07:41:41.275Z,99519.94
2023-01-18T07:44:11.701Z,99522.16
2023-01-18T07:52:02.678Z,99530.22
2023-01-18T07:54:29.884Z,99522.28
2023-01-18T07:56:56.264Z,99530.81
2023-01-18T07:59:22.755Z,99532.91
2023-01-18T08:01:51.643Z,99535.47
2023-01-18T08:04:20.913Z,99536.88
2023-01-18T08:06:47.361Z,99536.13
2023-01-18T08:09:18.728Z,99536.22
2023-01-18T08:11:45.055Z,99538.69
2023-01-18T08:14:11.716Z,99544.88
2023-01-18T08:16:47.466Z,99553.50
2023-01-18T08:19:13.799Z,99557.13
2023-01-18T08:21:43.927Z,99555.13
2023-01-18T08:24:13.718Z,99563.97
2023-01-18T08:26:40.469Z,99567.84
2023-01-18T08:29:09.993Z,99576.94
2023-01-18T08:31:39.347Z,99576.81
2023-01-18T08:34:06.211Z,99567.88
2023-01-18T08:36:35.454Z,99573.69
2023-01-18T08:39:02.012Z,99573.97
2023-01-18T08:41:31.788Z,99579.19
2023-01-18T08:43:59.778Z,99582.88
2023-01-18T08:46:26.521Z,99583.06
2023-01-18T08:48:57.483Z,99581.88
2023-01-18T08:51:29.371Z,99591.38
2023-01-18T08:53:57.017Z,99584.94
2023-01-18T08:56:30.761Z,99581.53
2023-01-18T08:58:57.531Z,99582.31
2023-01-18T09:01:26.837Z,99586.34
2023-01-18T09:03:58.385Z,99585.25
2023-01-18T09:09:09.150Z,99610.66
2023-01-18T09:11:41.304Z,99600.66
2023-01-18T09:14:07.653Z,99596.44
2023-01-18T09:16:47.385Z,99607.34
2023-01-18T09:19:19.476Z,99604.22
2023-01-18T09:21:50.719Z,99610.78
2023-01-18T09:24:17.683Z,99607.84
2023-01-18T09:26:45.274Z,99596.69
2023-01-18T09:29:11.947Z,99616.81
2023-01-18T09:31:38.345Z,99611.50
2023-01-18T09:34:18.351Z,99631.09
2023-01-18T09:36:45.795Z,99622.56
2023-01-18T09:39:19.784Z,99627.19
2023-01-18T09:42:01.315Z,99621.88
2023-01-18T09:44:55.424Z,99629.22
2023-01-18T09:47:34.345Z,99634.25
2023-01-18T09:50:18.928Z,99632.72
2023-01-18T09:52:45.373Z,99634.06
2023-01-18T09:55:21.054Z,99634.75
2023-01-18T09:58:12.483Z,99647.00
2023-01-18T10:00:49.377Z,99643.84
2023-01-18T10:03:27.597Z,99638.22
2023-01-18T10:06:08.315Z,99636.47
2023-01-18T10:09:20.915Z,99638.78
2023-01-18T10:12:02.963Z,99645.44
2023-01-18T10:14:48.029Z,99635.84
2023-01-18T10:17:24.001Z,99634.47
2023-01-18T10:19:55.045Z,99635.53
2023-01-18T10:22:38.636Z,99638.13
2023-01-18T10:25:29.532Z,99641.19
2023-01-18T10:28:01.467Z,99637.66
2023-01-18T10:31:04.772Z,99624.69
2023-01-18T10:33:40.911Z,99630.50
2023-01-18T10:39:27.982Z,99629.25
2023-01-18T10:42:06.104Z,99634.13
2023-01-18T10:44:35.446Z,99635.41
2023-01-18T10:47:02.190Z,99632.22
2023-01-18T10:49:43.516Z,99632.84
2023-01-18T10:52:31.599Z,99647.97
2023-01-18T10:55:07.503Z,99646.97
2023-01-18T10:57:55.549Z,99655.66
2023-01-18T11:00:37.685Z,99654.09
2023-01-18T11:03:13.473Z,99653.81
2023-01-18T11:05:49.722Z,99645.88
2023-01-18T11:08:26.365Z,99647.31
2023-01-18T11:11:48.217Z,99654.63
2023-01-18T11:14:33.349Z,99661.00
2023-01-18T11:17:18.782Z,99660.41
2023-01-18T11:20:09.207Z,99662.06
2023-01-18T11:22:37.944Z,99669.16
2023-01-18T11:25:04.760Z,99672.13
2023-01-18T11:27:31.887Z,99672.84
2023-01-18T11:29:59.679Z,99661.31
2023-01-18T11:32:35.698Z,99657.75
2023-01-18T11:35:09.135Z,99655.81
2023-01-18T11:37:40.668Z,99666.84
2023-01-18T11:40:32.157Z,99661.41
2023-01-18T11:43:17.201Z,99657.88
2023-01-18T11:45:55.040Z,99653.69
2023-01-18T11:48:38.636Z,99654.56
2023-01-18T11:51:43.623Z,99647.47
2023-01-18T11:54:53.849Z,99660.13
2023-01-18T11:57:20.238Z,99660.63
2023-01-18T11:59:48.720Z,99661.44
2023-01-18T12:02:38.888Z,99666.91
2023-01-18T12:05:28.203Z,99653.41
2023-01-18T12:08:06.796Z,99656.31
2023-01-18T12:11:04.000Z,99663.34
2023-01-18T12:13:45.021Z,99654.56
2023-01-18T12:16:32.340Z,99668.69
2023-01-18T12:19:26.043Z,99667.44
2023-01-18T12:22:17.129Z,99673.09
2023-01-18T12:28:00.765Z,99662.41
2023-01-18T12:30:46.012Z,99667.97
2023-01-18T12:33:45.941Z,99653.19
2023-01-18T12:36:49.078Z,99652.31
2023-01-18T12:39:28.737Z,99662.72
2023-01-18T12:42:43.481Z,99650.25
2023-01-18T12:45:18.306Z,99660.47
2023-01-18T12:48:27.051Z,99650.44
2023-01-18T12:50:56.120Z,99654.66
2023-01-18T12:53:55.622Z,99644.47
2023-01-18T12:59:38.853Z,99653.28
2023-01-18T13:02:26.438Z,99647.78
2023-01-18T13:05:04.859Z,99658.06
2023-01-18T13:07:37.779Z,99644.91
2023-01-18T13:10:25.639Z,99644.75
2023-01-18T13:13:09.333Z,99641.88
2023-01-18T13:15:59.899Z,99648.22
2023-01-18T13:18:33.300Z,99651.97
2023-01-18T13:21:18.302Z,99662.19
2023-01-18T13:24:24.476Z,99652.31
2023-01-18T13:26:55.065Z,99656.69
2023-01-18T13:29:31.913Z,99674.72
2023-01-18T13:31:58.530Z,99672.28
2023-01-18T13:34:48.279Z,99670.00
2023-01-18T13:37:56.620Z,99666.78
2023-01-18T13:40:26.801Z,99672.41
2023-01-18T13:42:59.712Z,99670.81
2023-01-18T13:45:28.715Z,99675.50
2023-01-18T13:50:48.374Z,99675.66
2023-01-18T13:53:14.738Z,99669.34
2023-01-18T13:55:52.102Z,99680.22
2023-01-18T13:58:35.019Z,99693.22
2023-01-18T14:03:50.932Z,99691.88
2023-01-18T14:06:32.260Z,99692.88
2023-01-18T14:09:14.074Z,99681.81
2023-01-18T14:11:59.620Z,99685.88
2023-01-18T14:14:34.636Z,99686.84
2023-01-18T14:17:16.039Z,99696.72
2023-01-18T14:19:48.473Z,99707.91
2023-01-18T14:22:27.987Z,99717.81
2023-01-18T14:25:02.655Z,99714.09
2023-01-18T14:27:41.416Z,99728.19
2023-01-18T14:30:35.293Z,99720.72
2023-01-18T14:33:13.159Z,99727.06
2023-01-18T14:35:54.777Z,99727.19
2023-01-18T14:38:23.948Z,99731.41
2023-01-18T14:40:59.537Z,99737.25
2023-01-18T14:43:31.050Z,99737.41
2023-01-18T14:46:39.809Z,99744.97
2023-01-18T14:51:55.983Z,99753.09
2023-01-18T14:54:25.927Z,99736.81
2023-01-18T14:57:03.637Z,99745.09
2023-01-18T14:59:32.160Z,99748.50
2023-01-18T15:02:16.089Z,99752.38
2023-01-18T15:04:48.879Z,99758.53
2023-01-18T15:07:20.028Z,99754.31
2023-01-18T15:09:52.772Z,99758.97
2023-01-18T15:12:29.259Z,99759.88
2023-01-18T15:15:21.549Z,99758.22
2023-01-18T15:17:58.396Z,99756.59
2023-01-18T15:20:27.981Z,99760.97
2023-01-18T15:22:54.434Z,99764.03
2023-01-18T15:25:30.671Z,99757.88
2023-01-18T15:28:18.583Z,99760.13
2023-01-18T15:30:54.801Z,99756.16
2023-01-18T15:33:27.160Z,99749.19
2023-01-18T15:36:01.319Z,99750.19
2023-01-18T15:38:27.857Z,99747.88
2023-01-18T15:41:32.960Z,99754.56
2023-01-18T15:44:26.073Z,99763.63
2023-01-18T15:46:52.514Z,99761.31
2023-01-18T15:49:19.075Z,99749.00
2023-01-18T15:52:04.968Z,99756.78
2023-01-18T15:54:33.049Z,99743.41
2023-01-18T15:57:19.711Z,99751.88
2023-01-18T15:59:53.684Z,99753.00
2023-01-18T16:02:23.153Z,99760.66
2023-01-18T16:05:06.971Z,99765.16
2023-01-18T16:07:45.111Z,99771.84
2023-01-18T16:10:30.483Z,99771.84
2023-01-18T16:13:28.199Z,99778.00
2023-01-18T16:16:04.884Z,99777.19
2023-01-18T16:18:31.797Z,99787.88
2023-01-18T16:21:03.572Z,99782.91
2023-01-18T16:23:32.305Z,99787.94
2023-01-18T16:28:47.963Z,99789.75
2023-01-18T16:31:22.780Z,99786.56
2023-01-18T16:33:55.087Z,99794.19
2023-01-18T16:36:22.256Z,99808.31
2023-01-18T16:38:48.655Z,99799.69
2023-01-18T16:41:18.356Z,99795.75
2023-01-18T16:43:48.194Z,99800.78
2023-01-18T16:46:21.835Z,99804.19
2023-01-18T16:48:51.635Z,99807.25
2023-01-18T16:51:19.696Z,99795.31
2023-01-18T16:53:50.648Z,99797.00
2023-01-18T16:56:17.212Z,99801.66
2023-01-18T16:58:43.603Z,99808.38
2023-01-18T17:01:17.685Z,99821.13
2023-01-18T17:03:52.142Z,99824.00
2023-01-18T17:06:22.736Z,99828.34
2023-01-18T17:08:52.090Z,99830.34
2023-01-18T17:11:25.907Z,99824.75
2023-01-18T17:13:55.222Z,99821.75
2023-01-18T17:16:28.776Z,99829.50
2023-01-18T17:19:00.397Z,99824.66
2023-01-18T17:21:29.601Z,99832.31
2023-01-18T17:23:55.989Z,99832.44
2023-01-18T17:26:25.588Z,99836.69
2023-01-18T17:28:54.785Z,99836.41
2023-01-18T17:31:24.086Z,99849.63
2023-01-18T17:33:51.542Z,99845.91
2023-01-18T17:36:18.065Z,99843.28
2023-01-18T17:38:44.456Z,99851.38
2023-01-18T17:41:27.719Z,99844.81
2023-01-18T17:43:55.210Z,99847.25
2023-01-18T17:46:24.650Z,99851.31
2023-01-18T17:48:51.050Z,99857.69
2023-01-18T17:51:26.553Z,99855.38
2023-01-18T17:53:52.934Z,99861.03
2023-01-18T17:56:22.041Z,99868.16
2023-01-18T17:58:52.646Z,99873.38
2023-01-18T18:01:19.831Z,99878.69
2023-01-18T18:03:49.636Z,99880.63
2023-01-18T18:06:26.159Z,99885.66
2023-01-18T18:09:00.913Z,99887.81
2023-01-18T18:11:28.362Z,99883.47
2023-01-18T18:13:59.057Z,99888.50
2023-01-18T18:16:25.918Z,99887.16
2023-01-18T18:18:58.089Z,99880.78
2023-01-18T18:21:27.060Z,99884.16
2023-01-18T18:24:01.028Z,99884.47
2023-01-18T18:26:27.584Z,99886.84
2023-01-18T18:28:53.950Z,99893.28
2023-01-18T18:34:05.127Z,99899.03
2023-01-18T18:36:34.758Z,99908.59
2023-01-18T18:39:07.003Z,99902.47
2023-01-18T18:41:37.268Z,99917.50
2023-01-18T18:44:03.715Z,99910.91
2023-01-18T18:46:32.773Z,99904.28
2023-01-18T18:49:02.883Z,99900.06
2023-01-18T18:51:38.147Z,99914.81
2023-01-18T18:54:05.008Z,99912.88
2023-01-18T18:56:31.974Z,99912.63
2023-01-18T18:59:02.567Z,99917.72
2023-01-18T19:01:29.735Z,99925.50
2023-01-18T19:04:05.328Z,99915.53
2023-01-18T19:06:32.462Z,99918.84
2023-01-18T19:08:59.079Z,99916.91
2023-01-18T19:11:25.960Z,99920.84
2023-01-18T19:13:56.300Z,99920.84
2023-01-18T19:16:23.040Z,99926.63
2023-01-18T19:18:53.555Z,99922.75
2023-01-18T19:21:20.291Z,99926.63
2023-01-18T19:23:46.775Z,99919.91
2023-01-18T19:26:13.897Z,99927.03
2023-01-18T19:28:43.646Z,99921.31
2023-01-18T19:31:11.765Z,99932.25
2023-01-18T19:33:47.995Z,99933.19
2023-01-18T19:36:17.529Z,99936.63
2023-01-18T19:38:57.731Z,99943.69
2023-01-18T19:41:32.163Z,99947.81
2023-01-18T19:43:58.616Z,99947.50
2023-01-18T19:46:28.562Z,99961.69
2023-01-18T19:49:00.201Z,99970.31
2023-01-18T19:51:37.178Z,99963.31
2023-01-18T19:54:04.225Z,99964.13
2023-01-18T19:56:33.709Z,99961.41
2023-01-18T19:59:03.610Z,99951.44
2023-01-18T20:01:37.921Z,99953.38
2023-01-18T20:04:06.067Z,99947.66
2023-01-18T20:06:34.244Z,99948.88
2023-01-18T20:09:01.181Z,99950.75
2023-01-18T20:11:30.629Z,99952.84
2023-01-18T20:13:57.309Z,99958.97
2023-01-18T20:16:27.357Z,99948.75
2023-01-18T20:18:54.339Z,99947.38
2023-01-18T20:21:23.476Z,99958.97
2023-01-18T20:23:55.861Z,99961.31
2023-01-18T20:26:35.093Z,99964.19
2023-01-18T20:29:08.543Z,99958.22
2023-01-18T20:31:43.105Z,99962.72
2023-01-18T20:34:17.310Z,99962.03
2023-01-18T20:36:45.948Z,99965.19
2023-01-18T20:39:16.593Z,99961.38
2023-01-18T20:41:49.812Z,99961.22
2023-01-18T20:44:19.106Z,99961.66
2023-01-18T20:46:48.396Z,99962.19
2023-01-18T20:49:15.045Z,99962.88
2023-01-18T20:51:44.374Z,99973.25
2023-01-18T20:54:13.783Z,99969.56
2023-01-18T20:56:40.206Z,99976.94
2023-01-18T20:59:08.993Z,99977.47
2023-01-18T21:01:38.544Z,99977.03
2023-01-18T21:04:12.688Z,99977.84
2023-01-18T21:06:44.742Z,99978.69
2023-01-18T21:09:17.242Z,99983.31
2023-01-18T21:11:44.028Z,99992.84
2023-01-18T21:14:10.455Z,99992.06
2023-01-18T21:16:40.576Z,99995.84
2023-01-18T21:19:10.369Z,100004.19
2023-01-18T21:21:43.742Z,100004.44
2023-01-18T21:24:13.215Z,100012.25
2023-01-18T21:26:42.005Z,100015.91
2023-01-18T21:29:14.596Z,100016.34
2023-01-18T21:31:41.240Z,100021.66
2023-01-18T21:34:10.907Z,100034.34
2023-01-18T21:36:40.463Z,100043.78
2023-01-18T21:39:13.328Z,100037.78
2023-01-18T21:42:01.314Z,100054.16
2023-01-18T21:44:46.072Z,100055.25
2023-01-18T21:47:17.899Z,100056.63
2023-01-18T21:50:21.709Z,100072.34
2023-01-18T21:53:07.702Z,100075.44
2023-01-18T21:55:36.845Z,100068.78
2023-01-18T21:58:22.673Z,100078.19
2023-01-18T22:00:51.417Z,100079.13
2023-01-18T22:03:18.447Z,100087.28
2023-01-18T22:05:48.737Z,100090.53
2023-01-18T22:08:17.998Z,100079.31
2023-01-18T22:10:53.526Z,100089.38
2023-01-18T22:13:19.946Z,100086.75
2023-01-18T22:15:46.321Z,100084.25
2023-01-18T22:21:02.244Z,100102.25
2023-01-18T22:23:28.889Z,100081.97
2023-01-18T22:26:00.582Z,100079.81
2023-01-18T22:28:29.765Z,100085.09
2023-01-18T22:30:59.001Z,100086.09
2023-01-18T22:33:31.621Z,100083.78
2023-01-18T22:36:00.684Z,100081.81
2023-01-18T22:38:37.036Z,100082.19
2023-01-18T22:41:06.495Z,100093.78
2023-01-18T22:43:37.804Z,100087.63
2023-01-18T22:46:07.571Z,100074.03
2023-01-18T22:48:41.465Z,100081.94
2023-01-18T22:51:14.803Z,100081.66
2023-01-18T22:53:44.778Z,100076.72
2023-01-18T22:56:16.720Z,100082.06
2023-01-18T22:58:47.277Z,100082.44
2023-01-18T23:01:29.388Z,100080.56
2023-01-18T23:04:03.335Z,100085.03
2023-01-18T23:06:41.881Z,100075.06
2023-01-18T23:09:14.691Z,100082.06
2023-01-18T23:11:48.014Z,100091.59
2023-01-18T23:14:35.100Z,100090.78
2023-01-18T23:17:20.285Z,100088.25
2023-01-18T23:19:52.592Z,100086.50
2023-01-18T23:22:18.981Z,100088.91
2023-01-18T23:24:45.328Z,100091.38
2023-01-18T23:27:25.240Z,100090.63
2023-01-18T23:29:58.587Z,100081.47
2023-01-18T23:32:26.555Z,100091.16
2023-01-18T23:35:01.437Z,100095.13
2023-01-18T23:37:28.041Z,100080.16
2023-01-18T23:40:13.256Z,100090.69
2023-01-18T23:43:00.684Z,100095.31
2023-01-18T23:45:46.625Z,100090.31
2023-01-18T23:48:37.550Z,100087.97
2023-01-18T23:51:28.096Z,100083.22
2023-01-18T23:54:19.224Z,100085.81
2023-01-18T23:59:29.361Z,100084.47
